createdAt,value
2018-09-19T00:00:22.309Z,55.60
2018-09-19T00:05:30.731Z,56.00
2018-09-19T00:10:39.175Z,56.40
2018-09-19T00:15:47.689Z,56.60
2018-09-19T00:20:56.049Z,57.00
2018-09-19T00:26:04.362Z,57.40
2018-09-19T00:31:12.798Z,58.40
2018-09-19T00:36:21.125Z,57.70
2018-09-19T00:41:29.470Z,57.00
2018-09-19T00:46:37.800Z,56.90
2018-09-19T00:51:46.123Z,56.90
2018-09-19T00:56:54.405Z,57.40
2018-09-19T01:02:02.812Z,58.10
2018-09-19T01:07:11.229Z,57.70
2018-09-19T01:12:19.637Z,57.20
2018-09-19T01:17:27.998Z,57.00
2018-09-19T01:22:36.488Z,56.80
2018-09-19T01:27:44.697Z,56.70
2018-09-19T01:32:52.964Z,56.60
2018-09-19T01:38:01.321Z,56.70
2018-09-19T01:43:09.733Z,56.40
2018-09-19T01:48:18.021Z,56.60
2018-09-19T01:53:26.473Z,57.20
2018-09-19T01:58:34.837Z,57.50
2018-09-19T02:03:43.138Z,57.90
2018-09-19T02:08:51.472Z,57.90
2018-09-19T02:13:59.790Z,58.20
2018-09-19T02:19:08.521Z,58.80
2018-09-19T02:24:16.815Z,59.20
2018-09-19T02:29:25.217Z,59.50
2018-09-19T02:34:33.543Z,60.00
2018-09-19T02:39:41.967Z,61.60
2018-09-19T02:44:50.292Z,62.60
2018-09-19T02:49:58.729Z,62.40
2018-09-19T02:55:07.085Z,64.00
2018-09-19T03:00:15.267Z,65.40
2018-09-19T03:05:23.699Z,65.10
2018-09-19T03:10:32.047Z,65.00
2018-09-19T03:15:40.502Z,64.80
2018-09-19T03:20:48.914Z,64.50
2018-09-19T03:25:57.202Z,65.00
2018-09-19T03:31:05.662Z,64.80
2018-09-19T03:36:14.014Z,65.70
2018-09-19T03:41:22.278Z,66.60
2018-09-19T03:46:30.476Z,66.30
2018-09-19T03:51:38.756Z,66.60
2018-09-19T03:56:47.183Z,66.90
2018-09-19T04:01:55.474Z,67.00
2018-09-19T04:07:03.841Z,67.60
2018-09-19T04:12:12.222Z,67.30
2018-09-19T04:17:20.618Z,67.70
2018-09-19T04:22:29.033Z,69.40
2018-09-19T04:27:37.342Z,69.30
2018-09-19T04:32:45.754Z,69.50
2018-09-19T04:37:54.118Z,69.50
2018-09-19T04:43:02.582Z,69.90
2018-09-19T04:48:11.021Z,69.60
2018-09-19T04:53:19.342Z,70.30
2018-09-19T04:58:27.805Z,70.50
2018-09-19T05:03:36.109Z,71.50
2018-09-19T05:08:44.397Z,70.90
2018-09-19T05:13:53.018Z,70.40
2018-09-19T05:19:01.434Z,70.50
2018-09-19T05:24:03.595Z,69.90
2018-09-19T05:29:11.870Z,69.20
2018-09-19T05:34:20.302Z,69.10
2018-09-19T05:39:28.704Z,68.10
2018-09-19T05:44:37.006Z,67.10
2018-09-19T05:49:45.525Z,66.90
2018-09-19T05:54:55.258Z,66.00
2018-09-19T06:00:04.098Z,65.10
2018-09-19T06:05:12.481Z,63.90
2018-09-19T06:10:20.779Z,63.30
2018-09-19T06:15:29.113Z,63.00
2018-09-19T06:20:37.342Z,63.80
2018-09-19T06:25:45.690Z,62.10
2018-09-19T06:30:54.043Z,61.20
2018-09-19T06:36:02.353Z,59.70
2018-09-19T06:41:10.749Z,57.90
2018-09-19T06:46:19.024Z,56.50
2018-09-19T06:51:27.402Z,56.20
2018-09-19T06:56:35.656Z,55.20
2018-09-19T07:01:44.018Z,53.90
2018-09-19T07:06:52.338Z,52.90
2018-09-19T07:12:00.632Z,51.40
2018-09-19T07:17:08.946Z,50.80
2018-09-19T07:22:17.366Z,50.20
2018-09-19T07:27:25.737Z,49.20
2018-09-19T07:32:34.049Z,48.20
2018-09-19T07:37:42.357Z,48.40
2018-09-19T07:42:50.766Z,46.70
2018-09-19T07:47:59.153Z,46.70
2018-09-19T07:53:07.521Z,44.40
2018-09-19T07:58:15.810Z,43.80
2018-09-19T08:03:24.145Z,44.30
2018-09-19T08:08:32.508Z,43.50
2018-09-19T08:13:40.830Z,41.30
2018-09-19T08:18:49.173Z,41.10
2018-09-19T08:23:57.606Z,41.60
2018-09-19T08:29:05.988Z,39.70
2018-09-19T08:34:14.211Z,40.30
2018-09-19T08:39:22.642Z,39.60
2018-09-19T08:44:30.948Z,38.40
2018-09-19T08:49:39.292Z,37.50
2018-09-19T08:54:47.551Z,38.40
2018-09-19T08:59:55.863Z,37.70
2018-09-19T09:05:04.174Z,37.20
2018-09-19T09:10:12.533Z,37.40
2018-09-19T09:15:20.835Z,35.20
2018-09-19T09:20:29.182Z,36.40
2018-09-19T09:25:37.606Z,37.30
2018-09-19T09:30:45.876Z,38.40
2018-09-19T09:35:54.206Z,35.30
2018-09-19T09:41:02.585Z,33.40
2018-09-19T09:46:10.919Z,33.30
2018-09-19T09:51:19.186Z,35.80
2018-09-19T09:56:27.506Z,33.70
2018-09-19T10:01:35.864Z,31.00
2018-09-19T10:06:44.114Z,31.80
2018-09-19T10:11:52.346Z,33.60
2018-09-19T10:17:00.677Z,36.70
2018-09-19T10:22:09.078Z,35.60
2018-09-19T10:27:17.434Z,36.10
2018-09-19T10:32:25.854Z,35.00
2018-09-19T10:37:34.178Z,35.10
2018-09-19T10:42:42.694Z,36.30
2018-09-19T10:47:51.072Z,35.00
2018-09-19T10:52:59.449Z,34.80
2018-09-19T10:58:07.827Z,35.30
2018-09-19T11:03:16.210Z,36.00
2018-09-19T11:08:24.510Z,35.20
2018-09-19T11:13:32.877Z,35.80
2018-09-19T11:18:41.206Z,34.50
2018-09-19T11:23:49.514Z,35.70
2018-09-19T11:28:57.877Z,34.90
2018-09-19T11:34:06.391Z,35.10
2018-09-19T11:39:14.601Z,34.10
2018-09-19T11:44:23.003Z,34.00
2018-09-19T11:49:31.325Z,33.40
2018-09-19T11:54:39.802Z,33.90
2018-09-19T11:59:48.153Z,34.00
2018-09-19T12:04:56.537Z,33.90
2018-09-19T12:10:04.923Z,33.30
2018-09-19T12:15:13.216Z,33.20
2018-09-19T12:20:21.570Z,32.80
2018-09-19T12:25:29.881Z,33.80
2018-09-19T12:30:38.246Z,32.90
2018-09-19T12:35:46.602Z,32.00
2018-09-19T12:40:55.038Z,31.50
2018-09-19T12:46:03.374Z,31.20
2018-09-19T12:51:11.583Z,31.60
2018-09-19T12:56:19.890Z,31.80
2018-09-19T13:01:28.208Z,31.40
2018-09-19T13:06:36.516Z,31.80
2018-09-19T13:11:44.873Z,32.10
2018-09-19T13:16:53.285Z,31.50
2018-09-19T13:22:01.649Z,31.50
2018-09-19T13:27:10.074Z,31.40
2018-09-19T13:32:18.289Z,31.70
2018-09-19T13:37:26.637Z,31.70
2018-09-19T13:42:34.982Z,31.80
2018-09-19T13:47:43.299Z,31.90
2018-09-19T13:52:51.588Z,31.50
2018-09-19T13:58:06.837Z,31.40
2018-09-19T14:03:15.070Z,31.70
2018-09-19T14:08:23.441Z,31.60
2018-09-19T14:13:31.816Z,31.80
2018-09-19T14:18:40.102Z,31.60
2018-09-19T14:23:48.565Z,31.80
2018-09-19T14:28:56.869Z,31.90
2018-09-19T14:34:05.261Z,31.80
2018-09-19T14:39:13.591Z,32.30
2018-09-19T14:44:21.969Z,31.80
2018-09-19T14:49:30.418Z,32.30
2018-09-19T14:54:38.786Z,32.30
2018-09-19T14:59:47.257Z,32.40
2018-09-19T15:04:55.438Z,32.60
2018-09-19T15:10:03.826Z,32.90
2018-09-19T15:15:12.291Z,33.10
2018-09-19T15:20:20.636Z,32.60
2018-09-19T15:25:28.977Z,32.90
2018-09-19T15:30:37.295Z,33.10
2018-09-19T15:35:45.590Z,33.20
2018-09-19T15:40:54.084Z,33.50
2018-09-19T15:46:02.362Z,33.60
2018-09-19T15:51:10.806Z,34.30
2018-09-19T15:56:19.233Z,34.20
2018-09-19T16:01:27.566Z,34.10
2018-09-19T16:06:35.951Z,34.20
2018-09-19T16:11:44.263Z,34.00
2018-09-19T16:16:52.645Z,33.90
2018-09-19T16:22:01.026Z,33.90
2018-09-19T16:27:09.347Z,33.60
2018-09-19T16:32:17.655Z,34.00
2018-09-19T16:37:26.081Z,34.00
2018-09-19T16:42:34.497Z,34.00
2018-09-19T16:47:42.899Z,33.80
2018-09-19T16:52:51.124Z,34.10
2018-09-19T16:57:59.469Z,34.70
2018-09-19T17:03:07.890Z,35.20
2018-09-19T17:08:16.186Z,35.40
2018-09-19T17:13:24.589Z,35.50
2018-09-19T17:18:32.935Z,35.80
2018-09-19T17:23:41.762Z,36.10
2018-09-19T17:28:50.105Z,36.50
2018-09-19T17:33:58.429Z,36.70
2018-09-19T17:39:08.466Z,37.40
2018-09-19T17:44:16.769Z,37.80
2018-09-19T17:49:25.059Z,37.60
2018-09-19T17:54:33.365Z,37.80
2018-09-19T17:59:41.788Z,38.00
2018-09-19T18:04:50.149Z,38.30
2018-09-19T18:09:58.425Z,38.30
2018-09-19T18:15:07.486Z,38.60
2018-09-19T18:20:15.973Z,38.80
2018-09-19T18:25:24.397Z,38.80
2018-09-19T18:30:32.790Z,39.00
2018-09-19T18:35:41.154Z,39.10
2018-09-19T18:40:49.369Z,38.70
2018-09-19T18:45:57.678Z,38.70
2018-09-19T18:51:06.042Z,38.50
2018-09-19T18:56:14.478Z,38.50
2018-09-19T19:01:22.841Z,38.90
2018-09-19T19:06:31.349Z,38.90
2018-09-19T19:11:39.658Z,39.00
2018-09-19T19:16:48.026Z,39.30
2018-09-19T19:21:56.354Z,39.80
2018-09-19T19:27:04.702Z,40.00
2018-09-19T19:32:12.928Z,40.50
2018-09-19T19:37:21.283Z,41.50
2018-09-19T19:42:29.715Z,41.90
2018-09-19T19:47:37.941Z,42.30
2018-09-19T19:52:46.273Z,42.80
2018-09-19T19:57:54.714Z,43.00
2018-09-19T20:03:03.029Z,43.80
2018-09-19T20:08:11.390Z,44.20
2018-09-19T20:13:19.811Z,44.20
2018-09-19T20:18:28.233Z,44.40
2018-09-19T20:23:36.493Z,45.00
2018-09-19T20:28:44.846Z,45.60
2018-09-19T20:33:53.189Z,45.90
2018-09-19T20:39:01.554Z,47.50
2018-09-19T20:44:09.858Z,47.20
2018-09-19T20:49:18.145Z,47.10
2018-09-19T20:54:26.409Z,47.30
2018-09-19T20:59:34.782Z,49.00
2018-09-19T21:04:43.169Z,50.60
2018-09-19T21:09:51.518Z,51.50
2018-09-19T21:14:59.975Z,50.90
2018-09-19T21:20:08.293Z,50.80
2018-09-19T21:25:16.715Z,50.50
2018-09-19T21:30:25.047Z,50.50
2018-09-19T21:35:33.798Z,50.90
2018-09-19T21:40:42.469Z,50.70
2018-09-19T21:45:50.717Z,51.50
2018-09-19T21:50:59.016Z,52.20
2018-09-19T21:56:07.481Z,52.60
2018-09-19T22:01:20.401Z,52.70
2018-09-19T22:06:28.736Z,52.90
2018-09-19T22:11:37.650Z,52.90
2018-09-19T22:16:45.913Z,52.80
2018-09-19T22:21:54.209Z,53.00
2018-09-19T22:27:02.577Z,54.00
2018-09-19T22:32:10.981Z,54.00
2018-09-19T22:37:19.326Z,54.40
2018-09-19T22:42:27.779Z,54.50
2018-09-19T22:47:36.045Z,55.90
2018-09-19T22:52:44.795Z,55.50
2018-09-19T22:57:53.018Z,55.80
2018-09-19T23:03:01.383Z,55.60
2018-09-19T23:08:09.742Z,55.40
2018-09-19T23:13:18.157Z,56.70
2018-09-19T23:18:26.435Z,56.40
2018-09-19T23:23:34.733Z,57.20
2018-09-19T23:28:43.109Z,57.50
2018-09-19T23:33:51.518Z,56.80
2018-09-19T23:38:59.895Z,56.90
2018-09-19T23:44:08.218Z,57.60
2018-09-19T23:49:16.555Z,57.70
2018-09-19T23:54:24.881Z,58.70
2018-09-19T23:59:33.243Z,59.30
